sensor_id;sensor_type;location;lat;lon;timestamp;temperature;humidity
33865;DHT22;20159;51.072;13.526;2023-04-15T00:00:02;9.50;95.90
33865;DHT22;20159;51.072;13.526;2023-04-15T00:02:28;9.40;95.80
33865;DHT22;20159;51.072;13.526;2023-04-15T00:04:54;9.40;95.80
33865;DHT22;20159;51.072;13.526;2023-04-15T00:07:19;9.40;95.90
33865;DHT22;20159;51.072;13.526;2023-04-15T00:09:44;9.50;95.90
33865;DHT22;20159;51.072;13.526;2023-04-15T00:12:11;9.40;95.90
33865;DHT22;20159;51.072;13.526;2023-04-15T00:14:37;9.50;95.90
33865;DHT22;20159;51.072;13.526;2023-04-15T00:17:03;9.40;95.90
33865;DHT22;20159;51.072;13.526;2023-04-15T00:19:29;9.40;95.90
33865;DHT22;20159;51.072;13.526;2023-04-15T00:21:55;9.40;95.90
33865;DHT22;20159;51.072;13.526;2023-04-15T00:24:21;9.40;95.80
33865;DHT22;20159;51.072;13.526;2023-04-15T00:26:47;9.40;95.90
33865;DHT22;20159;51.072;13.526;2023-04-15T00:29:14;9.40;95.90
33865;DHT22;20159;51.072;13.526;2023-04-15T00:31:40;9.40;95.90
33865;DHT22;20159;51.072;13.526;2023-04-15T00:34:06;9.40;95.90
33865;DHT22;20159;51.072;13.526;2023-04-15T00:36:31;9.40;95.90
33865;DHT22;20159;51.072;13.526;2023-04-15T00:38:58;9.40;95.90
33865;DHT22;20159;51.072;13.526;2023-04-15T00:41:24;9.40;95.90
33865;DHT22;20159;51.072;13.526;2023-04-15T00:43:50;9.40;95.80
33865;DHT22;20159;51.072;13.526;2023-04-15T00:46:16;9.40;95.90
33865;DHT22;20159;51.072;13.526;2023-04-15T00:48:46;9.40;95.80
33865;DHT22;20159;51.072;13.526;2023-04-15T00:51:12;9.40;95.80
33865;DHT22;20159;51.072;13.526;2023-04-15T00:53:38;9.40;95.80
33865;DHT22;20159;51.072;13.526;2023-04-15T00:56:04;9.40;95.80
33865;DHT22;20159;51.072;13.526;2023-04-15T00:58:30;9.40;95.90
33865;DHT22;20159;51.072;13.526;2023-04-15T01:00:56;9.50;95.90
33865;DHT22;20159;51.072;13.526;2023-04-15T01:03:22;9.40;95.90
33865;DHT22;20159;51.072;13.526;2023-04-15T01:05:48;9.50;95.90
33865;DHT22;20159;51.072;13.526;2023-04-15T01:08:13;9.50;95.80
33865;DHT22;20159;51.072;13.526;2023-04-15T01:10:39;9.40;95.80
33865;DHT22;20159;51.072;13.526;2023-04-15T01:13:04;9.50;95.80
33865;DHT22;20159;51.072;13.526;2023-04-15T01:15:31;9.50;95.80
33865;DHT22;20159;51.072;13.526;2023-04-15T01:17:58;9.50;95.80
33865;DHT22;20159;51.072;13.526;2023-04-15T01:20:24;9.50;95.80
33865;DHT22;20159;51.072;13.526;2023-04-15T01:22:50;9.50;95.80
33865;DHT22;20159;51.072;13.526;2023-04-15T01:25:17;9.50;95.80
33865;DHT22;20159;51.072;13.526;2023-04-15T01:27:44;9.50;95.80
33865;DHT22;20159;51.072;13.526;2023-04-15T01:30:10;9.40;95.80
33865;DHT22;20159;51.072;13.526;2023-04-15T01:32:36;9.50;95.80
33865;DHT22;20159;51.072;13.526;2023-04-15T01:35:01;9.40;95.80
33865;DHT22;20159;51.072;13.526;2023-04-15T01:37:28;9.50;95.90
33865;DHT22;20159;51.072;13.526;2023-04-15T01:39:53;9.40;95.90
33865;DHT22;20159;51.072;13.526;2023-04-15T01:42:20;9.50;96.00
33865;DHT22;20159;51.072;13.526;2023-04-15T01:44:46;9.50;95.90
33865;DHT22;20159;51.072;13.526;2023-04-15T01:47:11;9.50;95.90
33865;DHT22;20159;51.072;13.526;2023-04-15T01:49:37;9.50;96.10
33865;DHT22;20159;51.072;13.526;2023-04-15T01:52:02;9.50;95.90
33865;DHT22;20159;51.072;13.526;2023-04-15T01:54:28;9.50;95.90
33865;DHT22;20159;51.072;13.526;2023-04-15T01:56:53;9.90;96.00
33865;DHT22;20159;51.072;13.526;2023-04-15T01:59:20;9.50;95.90
33865;DHT22;20159;51.072;13.526;2023-04-15T02:01:45;9.50;95.90
33865;DHT22;20159;51.072;13.526;2023-04-15T02:04:11;9.50;95.90
33865;DHT22;20159;51.072;13.526;2023-04-15T02:06:41;9.50;95.90
33865;DHT22;20159;51.072;13.526;2023-04-15T02:09:08;9.50;95.90
33865;DHT22;20159;51.072;13.526;2023-04-15T02:11:34;9.50;95.90
33865;DHT22;20159;51.072;13.526;2023-04-15T02:14:01;9.40;95.90
33865;DHT22;20159;51.072;13.526;2023-04-15T02:16:26;9.50;96.00
33865;DHT22;20159;51.072;13.526;2023-04-15T02:18:52;9.40;96.00
33865;DHT22;20159;51.072;13.526;2023-04-15T02:21:17;9.40;96.00
33865;DHT22;20159;51.072;13.526;2023-04-15T02:23:43;9.40;96.00
33865;DHT22;20159;51.072;13.526;2023-04-15T02:26:09;9.40;96.30
33865;DHT22;20159;51.072;13.526;2023-04-15T02:28:34;9.50;96.10
33865;DHT22;20159;51.072;13.526;2023-04-15T02:31:04;9.50;96.10
33865;DHT22;20159;51.072;13.526;2023-04-15T02:33:30;9.50;96.10
33865;DHT22;20159;51.072;13.526;2023-04-15T02:35:56;9.50;96.10
33865;DHT22;20159;51.072;13.526;2023-04-15T02:38:22;9.50;96.10
33865;DHT22;20159;51.072;13.526;2023-04-15T02:40:47;9.40;96.10
33865;DHT22;20159;51.072;13.526;2023-04-15T02:43:14;9.50;96.10
33865;DHT22;20159;51.072;13.526;2023-04-15T02:45:41;9.50;96.10
33865;DHT22;20159;51.072;13.526;2023-04-15T02:48:08;9.40;96.00
33865;DHT22;20159;51.072;13.526;2023-04-15T02:50:34;9.60;96.10
33865;DHT22;20159;51.072;13.526;2023-04-15T02:53:00;9.50;96.10
33865;DHT22;20159;51.072;13.526;2023-04-15T02:55:26;9.50;96.10
33865;DHT22;20159;51.072;13.526;2023-04-15T02:57:52;9.50;96.10
33865;DHT22;20159;51.072;13.526;2023-04-15T03:00:18;9.50;96.10
33865;DHT22;20159;51.072;13.526;2023-04-15T03:02:44;9.50;96.10
33865;DHT22;20159;51.072;13.526;2023-04-15T03:05:11;9.50;96.10
33865;DHT22;20159;51.072;13.526;2023-04-15T03:07:37;9.40;96.10
33865;DHT22;20159;51.072;13.526;2023-04-15T03:10:05;9.50;96.10
33865;DHT22;20159;51.072;13.526;2023-04-15T03:12:30;9.50;96.10
33865;DHT22;20159;51.072;13.526;2023-04-15T03:14:56;9.50;96.10
33865;DHT22;20159;51.072;13.526;2023-04-15T03:17:21;9.40;96.10
33865;DHT22;20159;51.072;13.526;2023-04-15T03:19:47;9.50;96.20
33865;DHT22;20159;51.072;13.526;2023-04-15T03:22:12;9.50;96.20
33865;DHT22;20159;51.072;13.526;2023-04-15T03:24:38;9.50;96.20
33865;DHT22;20159;51.072;13.526;2023-04-15T03:27:03;9.50;96.20
33865;DHT22;20159;51.072;13.526;2023-04-15T03:29:30;9.50;96.30
33865;DHT22;20159;51.072;13.526;2023-04-15T03:31:56;9.50;96.30
33865;DHT22;20159;51.072;13.526;2023-04-15T03:34:21;9.50;96.20
33865;DHT22;20159;51.072;13.526;2023-04-15T03:36:47;9.50;96.20
33865;DHT22;20159;51.072;13.526;2023-04-15T03:39:12;9.50;96.20
33865;DHT22;20159;51.072;13.526;2023-04-15T03:41:38;9.50;96.20
33865;DHT22;20159;51.072;13.526;2023-04-15T03:44:03;9.50;96.20
33865;DHT22;20159;51.072;13.526;2023-04-15T03:46:29;9.50;96.30
33865;DHT22;20159;51.072;13.526;2023-04-15T03:48:54;9.50;96.30
33865;DHT22;20159;51.072;13.526;2023-04-15T03:51:20;9.50;96.30
33865;DHT22;20159;51.072;13.526;2023-04-15T03:53:46;9.50;96.30
33865;DHT22;20159;51.072;13.526;2023-04-15T03:56:12;9.50;96.30
33865;DHT22;20159;51.072;13.526;2023-04-15T03:58:37;9.60;96.30
33865;DHT22;20159;51.072;13.526;2023-04-15T04:01:03;9.50;96.30
33865;DHT22;20159;51.072;13.526;2023-04-15T04:03:28;9.60;96.30
33865;DHT22;20159;51.072;13.526;2023-04-15T04:05:54;9.60;96.30
33865;DHT22;20159;51.072;13.526;2023-04-15T04:08:19;9.50;96.30
33865;DHT22;20159;51.072;13.526;2023-04-15T04:10:45;9.50;96.20
33865;DHT22;20159;51.072;13.526;2023-04-15T04:13:11;9.60;96.30
33865;DHT22;20159;51.072;13.526;2023-04-15T04:15:36;9.60;96.30
33865;DHT22;20159;51.072;13.526;2023-04-15T04:18:02;9.50;96.20
33865;DHT22;20159;51.072;13.526;2023-04-15T04:20:27;9.60;96.30
33865;DHT22;20159;51.072;13.526;2023-04-15T04:22:53;9.60;96.30
33865;DHT22;20159;51.072;13.526;2023-04-15T04:25:18;9.50;96.20
33865;DHT22;20159;51.072;13.526;2023-04-15T04:27:44;9.60;96.20
33865;DHT22;20159;51.072;13.526;2023-04-15T04:30:10;9.60;96.20
33865;DHT22;20159;51.072;13.526;2023-04-15T04:32:36;9.60;96.30
33865;DHT22;20159;51.072;13.526;2023-04-15T04:35:02;9.50;96.30
33865;DHT22;20159;51.072;13.526;2023-04-15T04:37:28;9.60;96.30
33865;DHT22;20159;51.072;13.526;2023-04-15T04:39:53;9.60;96.30
33865;DHT22;20159;51.072;13.526;2023-04-15T04:42:19;9.50;96.30
33865;DHT22;20159;51.072;13.526;2023-04-15T04:44:44;9.60;96.30
33865;DHT22;20159;51.072;13.526;2023-04-15T04:47:10;9.60;96.30
33865;DHT22;20159;51.072;13.526;2023-04-15T04:49:36;9.60;96.30
33865;DHT22;20159;51.072;13.526;2023-04-15T04:52:02;9.60;96.30
33865;DHT22;20159;51.072;13.526;2023-04-15T04:54:27;9.60;96.30
33865;DHT22;20159;51.072;13.526;2023-04-15T04:56:53;9.60;96.30
33865;DHT22;20159;51.072;13.526;2023-04-15T04:59:18;9.60;96.20
33865;DHT22;20159;51.072;13.526;2023-04-15T05:01:43;9.70;96.20
33865;DHT22;20159;51.072;13.526;2023-04-15T05:04:09;9.70;96.20
33865;DHT22;20159;51.072;13.526;2023-04-15T05:06:35;9.70;96.50
33865;DHT22;20159;51.072;13.526;2023-04-15T05:09:01;9.70;96.30
33865;DHT22;20159;51.072;13.526;2023-04-15T05:11:27;9.80;96.30
33865;DHT22;20159;51.072;13.526;2023-04-15T05:13:53;9.70;96.30
33865;DHT22;20159;51.072;13.526;2023-04-15T05:16:19;9.70;96.30
33865;DHT22;20159;51.072;13.526;2023-04-15T05:18:45;9.70;96.30
33865;DHT22;20159;51.072;13.526;2023-04-15T05:21:10;9.70;96.30
33865;DHT22;20159;51.072;13.526;2023-04-15T05:23:36;9.70;96.40
33865;DHT22;20159;51.072;13.526;2023-04-15T05:26:02;9.70;96.40
33865;DHT22;20159;51.072;13.526;2023-04-15T05:28:27;9.70;96.40
33865;DHT22;20159;51.072;13.526;2023-04-15T05:30:53;9.70;96.40
33865;DHT22;20159;51.072;13.526;2023-04-15T05:33:19;9.80;96.40
33865;DHT22;20159;51.072;13.526;2023-04-15T05:35:44;9.80;96.40
33865;DHT22;20159;51.072;13.526;2023-04-15T05:38:10;9.80;96.40
33865;DHT22;20159;51.072;13.526;2023-04-15T05:40:35;9.80;96.40
33865;DHT22;20159;51.072;13.526;2023-04-15T05:43:01;9.80;96.40
33865;DHT22;20159;51.072;13.526;2023-04-15T05:45:26;9.80;96.40
33865;DHT22;20159;51.072;13.526;2023-04-15T05:47:52;9.80;96.30
33865;DHT22;20159;51.072;13.526;2023-04-15T05:50:19;9.90;96.30
33865;DHT22;20159;51.072;13.526;2023-04-15T05:52:45;9.90;96.30
33865;DHT22;20159;51.072;13.526;2023-04-15T05:55:10;9.90;96.30
33865;DHT22;20159;51.072;13.526;2023-04-15T05:57:36;9.90;96.30
33865;DHT22;20159;51.072;13.526;2023-04-15T06:00:06;9.90;96.30
33865;DHT22;20159;51.072;13.526;2023-04-15T06:02:31;9.90;96.20
33865;DHT22;20159;51.072;13.526;2023-04-15T06:04:57;9.90;96.20
33865;DHT22;20159;51.072;13.526;2023-04-15T06:07:23;9.90;96.30
33865;DHT22;20159;51.072;13.526;2023-04-15T06:09:49;9.90;96.30
33865;DHT22;20159;51.072;13.526;2023-04-15T06:12:14;13.10;97.10
33865;DHT22;20159;51.072;13.526;2023-04-15T06:14:41;10.00;96.30
33865;DHT22;20159;51.072;13.526;2023-04-15T06:17:06;10.00;96.30
33865;DHT22;20159;51.072;13.526;2023-04-15T06:19:32;10.00;96.30
33865;DHT22;20159;51.072;13.526;2023-04-15T06:21:59;10.00;96.30
33865;DHT22;20159;51.072;13.526;2023-04-15T06:24:25;10.10;96.30
33865;DHT22;20159;51.072;13.526;2023-04-15T06:26:50;10.00;96.20
33865;DHT22;20159;51.072;13.526;2023-04-15T06:29:16;10.10;96.20
33865;DHT22;20159;51.072;13.526;2023-04-15T06:31:41;10.10;96.20
33865;DHT22;20159;51.072;13.526;2023-04-15T06:34:07;10.10;96.20
33865;DHT22;20159;51.072;13.526;2023-04-15T06:36:32;10.10;96.10
33865;DHT22;20159;51.072;13.526;2023-04-15T06:38:58;10.10;96.10
33865;DHT22;20159;51.072;13.526;2023-04-15T06:41:23;10.10;96.10
33865;DHT22;20159;51.072;13.526;2023-04-15T06:43:49;10.10;96.10
33865;DHT22;20159;51.072;13.526;2023-04-15T06:46:15;10.10;96.10
33865;DHT22;20159;51.072;13.526;2023-04-15T06:48:41;10.10;96.10
33865;DHT22;20159;51.072;13.526;2023-04-15T06:51:06;10.10;96.00
33865;DHT22;20159;51.072;13.526;2023-04-15T06:53:32;10.20;96.00
33865;DHT22;20159;51.072;13.526;2023-04-15T06:55:58;10.10;96.00
33865;DHT22;20159;51.072;13.526;2023-04-15T06:58:23;10.10;96.00
33865;DHT22;20159;51.072;13.526;2023-04-15T07:00:48;10.20;96.00
33865;DHT22;20159;51.072;13.526;2023-04-15T07:03:14;10.20;96.00
33865;DHT22;20159;51.072;13.526;2023-04-15T07:05:40;10.20;96.00
33865;DHT22;20159;51.072;13.526;2023-04-15T07:08:06;10.20;96.00
33865;DHT22;20159;51.072;13.526;2023-04-15T07:10:32;10.20;96.00
33865;DHT22;20159;51.072;13.526;2023-04-15T07:12:58;10.20;96.00
33865;DHT22;20159;51.072;13.526;2023-04-15T07:15:23;10.30;96.20
33865;DHT22;20159;51.072;13.526;2023-04-15T07:17:49;10.30;96.30
33865;DHT22;20159;51.072;13.526;2023-04-15T07:20:14;10.30;96.30
33865;DHT22;20159;51.072;13.526;2023-04-15T07:22:40;10.40;96.30
33865;DHT22;20159;51.072;13.526;2023-04-15T07:25:06;10.30;96.20
33865;DHT22;20159;51.072;13.526;2023-04-15T07:27:32;10.50;96.30
33865;DHT22;20159;51.072;13.526;2023-04-15T07:29:57;10.50;96.30
33865;DHT22;20159;51.072;13.526;2023-04-15T07:32:23;10.60;96.40
33865;DHT22;20159;51.072;13.526;2023-04-15T07:34:48;9.10;95.90
33865;DHT22;20159;51.072;13.526;2023-04-15T07:37:14;10.70;96.10
33865;DHT22;20159;51.072;13.526;2023-04-15T07:39:40;10.70;96.00
33865;DHT22;20159;51.072;13.526;2023-04-15T07:42:05;10.80;95.80
33865;DHT22;20159;51.072;13.526;2023-04-15T07:44:31;10.80;95.60
33865;DHT22;20159;51.072;13.526;2023-04-15T07:46:56;8.40;94.90
33865;DHT22;20159;51.072;13.526;2023-04-15T07:49:22;10.90;95.40
33865;DHT22;20159;51.072;13.526;2023-04-15T07:51:48;10.90;95.70
33865;DHT22;20159;51.072;13.526;2023-04-15T07:54:14;10.90;95.60
33865;DHT22;20159;51.072;13.526;2023-04-15T07:56:40;10.90;95.60
33865;DHT22;20159;51.072;13.526;2023-04-15T07:59:06;11.00;95.60
33865;DHT22;20159;51.072;13.526;2023-04-15T08:01:31;11.00;95.60
33865;DHT22;20159;51.072;13.526;2023-04-15T08:03:58;11.10;95.60
33865;DHT22;20159;51.072;13.526;2023-04-15T08:06:23;11.10;95.40
33865;DHT22;20159;51.072;13.526;2023-04-15T08:08:49;11.20;95.20
33865;DHT22;20159;51.072;13.526;2023-04-15T08:11:15;11.20;95.10
33865;DHT22;20159;51.072;13.526;2023-04-15T08:13:41;11.20;95.10
33865;DHT22;20159;51.072;13.526;2023-04-15T08:16:19;11.20;95.10
33865;DHT22;20159;51.072;13.526;2023-04-15T08:18:46;11.20;95.20
33865;DHT22;20159;51.072;13.526;2023-04-15T08:21:12;11.20;95.30
33865;DHT22;20159;51.072;13.526;2023-04-15T08:23:38;11.30;95.40
33865;DHT22;20159;51.072;13.526;2023-04-15T08:26:04;11.40;95.70
33865;DHT22;20159;51.072;13.526;2023-04-15T08:28:29;11.40;96.00
33865;DHT22;20159;51.072;13.526;2023-04-15T08:30:56;11.50;96.10
33865;DHT22;20159;51.072;13.526;2023-04-15T08:33:22;11.70;95.90
33865;DHT22;20159;51.072;13.526;2023-04-15T08:35:48;11.70;95.80
33865;DHT22;20159;51.072;13.526;2023-04-15T08:38:13;11.80;95.50
33865;DHT22;20159;51.072;13.526;2023-04-15T08:40:44;11.90;95.20
33865;DHT22;20159;51.072;13.526;2023-04-15T08:43:20;12.00;95.30
33865;DHT22;20159;51.072;13.526;2023-04-15T08:45:46;12.10;95.80
33865;DHT22;20159;51.072;13.526;2023-04-15T08:48:14;12.20;96.10
33865;DHT22;20159;51.072;13.526;2023-04-15T08:50:47;12.40;95.60
33865;DHT22;20159;51.072;13.526;2023-04-15T08:53:13;12.50;95.30
33865;DHT22;20159;51.072;13.526;2023-04-15T08:55:44;12.70;94.80
33865;DHT22;20159;51.072;13.526;2023-04-15T08:58:11;12.80;94.60
33865;DHT22;20159;51.072;13.526;2023-04-15T09:00:38;12.90;94.70
33865;DHT22;20159;51.072;13.526;2023-04-15T09:03:05;13.00;94.90
33865;DHT22;20159;51.072;13.526;2023-04-15T09:05:37;13.10;94.30
33865;DHT22;20159;51.072;13.526;2023-04-15T09:08:04;13.20;93.80
33865;DHT22;20159;51.072;13.526;2023-04-15T09:10:31;13.30;93.90
33865;DHT22;20159;51.072;13.526;2023-04-15T09:12:57;13.40;93.80
33865;DHT22;20159;51.072;13.526;2023-04-15T09:15:26;13.50;93.70
33865;DHT22;20159;51.072;13.526;2023-04-15T09:17:53;13.40;93.00
33865;DHT22;20159;51.072;13.526;2023-04-15T09:20:19;13.50;93.10
33865;DHT22;20159;51.072;13.526;2023-04-15T09:22:47;13.50;93.00
33865;DHT22;20159;51.072;13.526;2023-04-15T09:27:51;13.60;92.90
33865;DHT22;20159;51.072;13.526;2023-04-15T09:30:17;13.60;92.50
33865;DHT22;20159;51.072;13.526;2023-04-15T09:32:49;13.70;93.00
33865;DHT22;20159;51.072;13.526;2023-04-15T09:35:16;13.80;93.40
33865;DHT22;20159;51.072;13.526;2023-04-15T09:37:41;13.90;93.60
33865;DHT22;20159;51.072;13.526;2023-04-15T09:40:07;14.00;93.70
33865;DHT22;20159;51.072;13.526;2023-04-15T09:42:34;14.30;94.20
33865;DHT22;20159;51.072;13.526;2023-04-15T09:45:12;14.50;94.20
33865;DHT22;20159;51.072;13.526;2023-04-15T09:47:38;14.80;93.70
33865;DHT22;20159;51.072;13.526;2023-04-15T09:50:03;15.10;94.00
33865;DHT22;20159;51.072;13.526;2023-04-15T09:52:29;15.40;93.40
33865;DHT22;20159;51.072;13.526;2023-04-15T09:54:58;15.60;93.40
33865;DHT22;20159;51.072;13.526;2023-04-15T09:57:24;15.90;92.30
33865;DHT22;20159;51.072;13.526;2023-04-15T09:59:57;16.00;91.10
33865;DHT22;20159;51.072;13.526;2023-04-15T10:02:23;16.20;90.70
33865;DHT22;20159;51.072;13.526;2023-04-15T10:04:51;16.30;90.60
33865;DHT22;20159;51.072;13.526;2023-04-15T10:07:19;16.30;89.80
33865;DHT22;20159;51.072;13.526;2023-04-15T10:09:47;16.30;89.00
33865;DHT22;20159;51.072;13.526;2023-04-15T10:12:15;16.20;87.90
33865;DHT22;20159;51.072;13.526;2023-04-15T10:14:41;16.20;88.40
33865;DHT22;20159;51.072;13.526;2023-04-15T10:17:10;16.10;88.50
33865;DHT22;20159;51.072;13.526;2023-04-15T10:19:37;16.10;88.60
33865;DHT22;20159;51.072;13.526;2023-04-15T10:22:03;16.10;87.60
33865;DHT22;20159;51.072;13.526;2023-04-15T10:24:30;16.00;86.60
33865;DHT22;20159;51.072;13.526;2023-04-15T10:26:57;16.00;88.10
33865;DHT22;20159;51.072;13.526;2023-04-15T10:29:24;15.90;88.40
33865;DHT22;20159;51.072;13.526;2023-04-15T10:31:56;15.90;88.20
33865;DHT22;20159;51.072;13.526;2023-04-15T10:34:23;15.90;88.20
33865;DHT22;20159;51.072;13.526;2023-04-15T10:36:49;15.80;87.60
33865;DHT22;20159;51.072;13.526;2023-04-15T10:42:25;15.70;86.80
33865;DHT22;20159;51.072;13.526;2023-04-15T10:44:56;15.70;86.70
33865;DHT22;20159;51.072;13.526;2023-04-15T10:47:21;15.60;87.60
33865;DHT22;20159;51.072;13.526;2023-04-15T10:49:49;15.50;87.30
33865;DHT22;20159;51.072;13.526;2023-04-15T10:52:16;15.50;87.20
33865;DHT22;20159;51.072;13.526;2023-04-15T10:54:42;15.40;86.50
33865;DHT22;20159;51.072;13.526;2023-04-15T10:57:14;15.30;87.20
33865;DHT22;20159;51.072;13.526;2023-04-15T11:02:47;15.20;87.90
33865;DHT22;20159;51.072;13.526;2023-04-15T11:05:14;15.20;86.70
33865;DHT22;20159;51.072;13.526;2023-04-15T11:12:56;15.00;88.20
33865;DHT22;20159;51.072;13.526;2023-04-15T11:15:33;15.00;86.90
33865;DHT22;20159;51.072;13.526;2023-04-15T11:18:15;15.00;86.80
33865;DHT22;20159;51.072;13.526;2023-04-15T11:20:43;14.90;86.90
33865;DHT22;20159;51.072;13.526;2023-04-15T11:23:13;14.90;87.70
33865;DHT22;20159;51.072;13.526;2023-04-15T11:25:39;14.90;87.10
33865;DHT22;20159;51.072;13.526;2023-04-15T11:28:05;14.90;87.60
33865;DHT22;20159;51.072;13.526;2023-04-15T11:30:33;14.90;86.60
33865;DHT22;20159;51.072;13.526;2023-04-15T11:33:01;14.90;87.10
33865;DHT22;20159;51.072;13.526;2023-04-15T11:35:26;14.90;86.70
33865;DHT22;20159;51.072;13.526;2023-04-15T11:37:53;14.90;86.70
33865;DHT22;20159;51.072;13.526;2023-04-15T11:40:27;14.80;86.30
33865;DHT22;20159;51.072;13.526;2023-04-15T11:43:13;14.70;85.60
33865;DHT22;20159;51.072;13.526;2023-04-15T11:45:54;14.70;85.70
33865;DHT22;20159;51.072;13.526;2023-04-15T11:48:22;14.60;86.40
33865;DHT22;20159;51.072;13.526;2023-04-15T11:50:57;14.50;86.10
33865;DHT22;20159;51.072;13.526;2023-04-15T11:53:24;14.50;85.90
33865;DHT22;20159;51.072;13.526;2023-04-15T11:55:59;14.40;86.30
33865;DHT22;20159;51.072;13.526;2023-04-15T11:58:25;14.30;85.70
33865;DHT22;20159;51.072;13.526;2023-04-15T12:00:56;14.20;86.60
33865;DHT22;20159;51.072;13.526;2023-04-15T12:06:09;14.10;86.60
33865;DHT22;20159;51.072;13.526;2023-04-15T12:11:15;14.10;87.00
33865;DHT22;20159;51.072;13.526;2023-04-15T12:13:46;14.10;87.40
33865;DHT22;20159;51.072;13.526;2023-04-15T12:16:11;14.10;87.30
33865;DHT22;20159;51.072;13.526;2023-04-15T12:18:37;14.10;87.70
33865;DHT22;20159;51.072;13.526;2023-04-15T12:21:08;14.10;87.60
33865;DHT22;20159;51.072;13.526;2023-04-15T12:23:37;14.10;86.70
33865;DHT22;20159;51.072;13.526;2023-04-15T12:26:06;14.10;87.30
33865;DHT22;20159;51.072;13.526;2023-04-15T12:28:33;14.20;87.30
33865;DHT22;20159;51.072;13.526;2023-04-15T12:31:06;14.10;86.60
33865;DHT22;20159;51.072;13.526;2023-04-15T12:33:33;14.00;86.10
33865;DHT22;20159;51.072;13.526;2023-04-15T12:35:58;14.00;86.70
33865;DHT22;20159;51.072;13.526;2023-04-15T12:38:24;14.00;86.60
33865;DHT22;20159;51.072;13.526;2023-04-15T12:40:50;14.00;87.20
33865;DHT22;20159;51.072;13.526;2023-04-15T12:43:16;14.00;86.50
33865;DHT22;20159;51.072;13.526;2023-04-15T12:45:41;14.00;86.70
33865;DHT22;20159;51.072;13.526;2023-04-15T12:48:07;14.00;86.30
33865;DHT22;20159;51.072;13.526;2023-04-15T12:50:34;14.00;86.60
33865;DHT22;20159;51.072;13.526;2023-04-15T12:53:00;14.00;85.70
33865;DHT22;20159;51.072;13.526;2023-04-15T12:55:25;14.00;85.60
33865;DHT22;20159;51.072;13.526;2023-04-15T12:57:51;14.00;84.80
33865;DHT22;20159;51.072;13.526;2023-04-15T13:00:17;14.00;85.50
33865;DHT22;20159;51.072;13.526;2023-04-15T13:02:43;14.00;85.00
33865;DHT22;20159;51.072;13.526;2023-04-15T13:05:09;14.00;85.60
33865;DHT22;20159;51.072;13.526;2023-04-15T13:07:34;14.00;86.30
33865;DHT22;20159;51.072;13.526;2023-04-15T13:10:00;13.90;87.20
33865;DHT22;20159;51.072;13.526;2023-04-15T13:12:26;14.00;87.00
33865;DHT22;20159;51.072;13.526;2023-04-15T13:14:51;14.00;86.70
33865;DHT22;20159;51.072;13.526;2023-04-15T13:17:17;14.00;86.10
33865;DHT22;20159;51.072;13.526;2023-04-15T13:19:44;14.00;85.20
33865;DHT22;20159;51.072;13.526;2023-04-15T13:22:10;14.00;85.80
33865;DHT22;20159;51.072;13.526;2023-04-15T13:24:36;14.00;85.70
33865;DHT22;20159;51.072;13.526;2023-04-15T13:27:03;14.10;85.30
33865;DHT22;20159;51.072;13.526;2023-04-15T13:29:29;14.00;86.00
33865;DHT22;20159;51.072;13.526;2023-04-15T13:31:55;13.70;84.80
33865;DHT22;20159;51.072;13.526;2023-04-15T13:34:20;14.10;85.00
33865;DHT22;20159;51.072;13.526;2023-04-15T13:36:46;14.10;85.00
33865;DHT22;20159;51.072;13.526;2023-04-15T13:39:12;14.10;83.80
33865;DHT22;20159;51.072;13.526;2023-04-15T13:41:37;14.10;83.90
33865;DHT22;20159;51.072;13.526;2023-04-15T13:44:03;14.00;83.80
33865;DHT22;20159;51.072;13.526;2023-04-15T13:46:29;14.00;84.70
33865;DHT22;20159;51.072;13.526;2023-04-15T13:48:55;14.00;85.00
33865;DHT22;20159;51.072;13.526;2023-04-15T13:51:21;14.00;85.50
33865;DHT22;20159;51.072;13.526;2023-04-15T13:53:46;14.00;86.50
33865;DHT22;20159;51.072;13.526;2023-04-15T13:56:12;14.10;86.30
33865;DHT22;20159;51.072;13.526;2023-04-15T13:58:39;15.60;87.00
33865;DHT22;20159;51.072;13.526;2023-04-15T14:01:05;14.20;86.60
33865;DHT22;20159;51.072;13.526;2023-04-15T14:03:30;14.30;86.90
33865;DHT22;20159;51.072;13.526;2023-04-15T14:05:56;14.30;87.10
33865;DHT22;20159;51.072;13.526;2023-04-15T14:08:23;14.90;85.90
33865;DHT22;20159;51.072;13.526;2023-04-15T14:10:49;14.40;85.00
33865;DHT22;20159;51.072;13.526;2023-04-15T14:13:14;14.50;85.10
33865;DHT22;20159;51.072;13.526;2023-04-15T14:15:40;14.50;84.10
33865;DHT22;20159;51.072;13.526;2023-04-15T14:18:06;14.50;84.30
33865;DHT22;20159;51.072;13.526;2023-04-15T14:20:32;14.50;84.10
33865;DHT22;20159;51.072;13.526;2023-04-15T14:22:57;14.50;84.40
33865;DHT22;20159;51.072;13.526;2023-04-15T14:25:23;14.50;84.70
33865;DHT22;20159;51.072;13.526;2023-04-15T14:27:48;14.50;85.00
33865;DHT22;20159;51.072;13.526;2023-04-15T14:30:14;14.50;84.40
33865;DHT22;20159;51.072;13.526;2023-04-15T14:32:40;14.50;84.50
33865;DHT22;20159;51.072;13.526;2023-04-15T14:35:06;14.40;84.40
33865;DHT22;20159;51.072;13.526;2023-04-15T14:37:31;14.40;83.80
33865;DHT22;20159;51.072;13.526;2023-04-15T14:39:57;14.40;83.90
33865;DHT22;20159;51.072;13.526;2023-04-15T14:42:22;14.40;84.30
33865;DHT22;20159;51.072;13.526;2023-04-15T14:44:48;14.40;84.20
33865;DHT22;20159;51.072;13.526;2023-04-15T14:47:14;14.40;84.10
33865;DHT22;20159;51.072;13.526;2023-04-15T14:49:40;14.30;84.50
33865;DHT22;20159;51.072;13.526;2023-04-15T14:52:06;14.30;84.10
33865;DHT22;20159;51.072;13.526;2023-04-15T14:54:31;14.30;84.00
33865;DHT22;20159;51.072;13.526;2023-04-15T14:56:56;14.20;83.90
33865;DHT22;20159;51.072;13.526;2023-04-15T14:59:22;14.10;85.00
33865;DHT22;20159;51.072;13.526;2023-04-15T15:01:47;14.10;85.50
33865;DHT22;20159;51.072;13.526;2023-04-15T15:04:13;14.10;85.20
33865;DHT22;20159;51.072;13.526;2023-04-15T15:06:39;14.00;85.60
33865;DHT22;20159;51.072;13.526;2023-04-15T15:09:05;13.90;85.40
33865;DHT22;20159;51.072;13.526;2023-04-15T15:11:30;15.40;86.50
33865;DHT22;20159;51.072;13.526;2023-04-15T15:13:56;14.00;85.80
33865;DHT22;20159;51.072;13.526;2023-04-15T15:16:22;13.90;85.90
33865;DHT22;20159;51.072;13.526;2023-04-15T15:18:49;13.90;86.10
33865;DHT22;20159;51.072;13.526;2023-04-15T15:21:15;14.70;86.80
33865;DHT22;20159;51.072;13.526;2023-04-15T15:23:41;13.90;87.50
33865;DHT22;20159;51.072;13.526;2023-04-15T15:26:07;14.00;87.00
33865;DHT22;20159;51.072;13.526;2023-04-15T15:28:33;14.00;86.70
33865;DHT22;20159;51.072;13.526;2023-04-15T15:30:59;14.10;87.80
33865;DHT22;20159;51.072;13.526;2023-04-15T15:33:24;14.20;87.50
33865;DHT22;20159;51.072;13.526;2023-04-15T15:35:50;14.20;88.00